Portada
METAR-TAF:

METAR-TAF

Aeroports :

Akulivik, Quebec, Canadà

latitud: 60-49N, longitud: 078-09W, altitud: 20 m

Observació

L'informe es va fer fa 1 hora i 19 minuts, a les 13:00 UTC
Vent 8 kt del Sud-Est
Temperatura 8°C
Humitat 93%
Pressió 1021 hPa
Visibilitat: 24.1 km
Cel cobert a una alçada de 5200 ft
pluja

METAR: CYKO 171300Z 14008KT 15SM -RA OVC052 08/07 A3015 RMK SC8 SLP213

Hora: 10:19 (14:19 UTC)


TAF: manca

Observacions i pronòstics meteorològics de més de 4000 aeroports (METAR i TAF).

Les estacions disponibles són els punts grocs i vermells al mapa.

Posi el ratolí al punt desitjat per veure el nom de l'estació.

Feu clic per veure les observacions i els pronòstics meteorològics.

Per canviar el mapa: feu clic els botons verds amb una creu de color negre per apropar; al botó verd amb un guió per allunyar la imatge; o en les fletxes verdes per a mapes adjacents.


METAR-TAF: